x

Diamond Shoals (41025) Wave Buoy

11:50 - Sat 30th May 2015 All times are EDT. -4 hours from GMT.

  • Sig Wave height 3.6ft
  • Swell Direction
  • Peak Period 9s
  • Average Period 6s
  • Wind
    9mph, 11mph gusts
  • Sea Temp 80°f
  • Aire Temp 76°f
  • Sea Pressure 1023.7mb
  • Diamond Shoals
  • Diamond Shoals

More Historic Weather Station data

Upgrade to MSW Pro to gain access to the past 30 days of data for over 8000 Wavebouys and Weather Stations around the globe.

Join Pro

Comparision Forecast

View Surf forecast
   
sáb 05/30 11:50 3.5ft 9s 6s 9 11 mph 1023.7mb 80f 76f
10:50 3.5ft 9s 6s 7 11 mph 1023.9mb 80f 76f
9:50 4ft 10s 6s 7 9 mph 1023.9mb 79f 76f
8:50 3.5ft 9s 6s 4 9 mph 1023.9mb 79f 76f
7:50 3.5ft 9s 6s 7 11 mph 1023.8mb 79f 76f
6:50 3.5ft 9s 6s 9 11 mph 1023.3mb 79f 76f
5:50 3.5ft 9s 6s 9 11 mph 1022.7mb 79f 75f
4:50 4ft 9s 6s 7 9 mph 1022.4mb 79f 75f
3:50 3.5ft 9s 6s 11 16 mph 1022mb 79f 75f
2:50 4ft 9s 6s 11 13 mph 1022.2mb 80f 76f
1:50 3.5ft 8s 6s 11 13 mph 1022.7mb 80f 76f
12:50 4ft 8s 6s 11 16 mph 1023mb 80f 76f
vie 05/29 11:50 3.5ft 8s 6s 13 18 mph 1023.5mb 80f 76f
10:50 3.5ft 9s 6s 13 18 mph 1023.6mb 80f 76f
9:50 3.5ft 9s 6s 11 13 mph 1023.7mb 80f 76f
8:50 3.5ft 8s 6s 11 16 mph 1023.2mb 80f 76f
7:50 3.5ft 8s 6s 11 13 mph 1023.2mb 80f 77f
6:50 3.5ft 8s 6s 9 11 mph 1023.3mb 80f 77f
5:50 3.5ft 8s 6s 9 11 mph 1023.3mb 81f 77f
4:50 3.5ft 8s 5s 7 9 mph 1023.6mb 81f 77f
3:50 3.5ft 8s 5s 7 11 mph 1023.8mb 82f 77f
2:50 3.5ft 8s 5s 11 13 mph 1024.1mb 79f 77f
1:50 3.5ft 8s 6s 13 16 mph 1024.2mb 79f 77f
12:50 3.5ft 9s 6s 13 18 mph 1024.4mb 80f 77f
11:50 3ft 8s 6s 9 11 mph 1024.5mb 77f 77f
10:50 3.5ft 9s 6s 11 13 mph 1024.7mb 76f 75f
9:50 3.5ft 9s 6s 9 11 mph 1024.3mb 76f 77f
8:50 3.5ft 9s 6s 9
mph
1024.1mb 76f 76f
7:50 3.5ft 9s 6s 7 9 mph 1023.8mb 76f 75f
6:50 4ft 9s 6s 4 9 mph 1023.5mb 76f 76f
5:50 4ft 9s 6s 4 9 mph 1023.1mb 76f 76f
3:50 4ft 9s 7s 2 4 mph 1022.9mb 77f 75f
2:50 4.5ft 9s 7s 4
mph
1023mb 77f 75f
1:50 4ft 9s 7s 7 9 mph 1023.5mb 77f 75f
12:50 4ft 9s 7s 7 11 mph 1023.9mb 77f 75f
jue 05/28 11:50 3.5ft 10s 7s 11 13 mph 1024.1mb 77f 75f
10:50 4ft 8s 7s 11 13 mph 1024mb 77f 75f
9:50 4ft 8s 7s 11 13 mph 1023.7mb 78f 75f
8:50 3.5ft 8s 6s 9 11 mph 1023.1mb 78f 75f
7:50 3.5ft 8s 6s 9 11 mph 1023.1mb 78f 75f
6:50 3.5ft 8s 7s 9 11 mph 1023mb 78f 76f
5:50 3.5ft 8s 6s 7 9 mph 1023.2mb 78f 75f
4:50 3.5ft 8s 7s 7 9 mph 1023.5mb 78f 75f
3:50 3.5ft 8s 7s 9 11 mph 1023.8mb 78f 75f
2:50 3ft 9s 6s 7 9 mph 1024.1mb 78f 75f
1:50 2.5ft 8s 6s 4 7 mph 1024.5mb 78f 75f
12:50 2.5ft 8s 6s 7
mph
1025.1mb 78f 75f
11:50 2.5ft 7s 6s 7 9 mph 1025.3mb 78f 75f
10:50 2.5ft 8s 5s 4 7 mph 1025.3mb 77f 75f
9:50 2.5ft 8s 6s 4 9 mph 1025.1mb 77f 75f
8:50 2.5ft 8s 6s 4 7 mph 1025.2mb 77f 75f
7:50 2.5ft 8s 5s 4 7 mph 1024.7mb 77f 75f
6:50 2.5ft 8s 6s 7 9 mph 1024.6mb 77f 74f
5:50 2.5ft 7s 5s 11 13 mph 1024mb 77f 74f
4:50 3ft 8s 5s 9 11 mph 1023.8mb 77f 73f
3:50 3ft 7s 5s 9 11 mph 1023.9mb 77f 74f
2:50 3ft 7s 5s 9 11 mph 1024mb 77f 74f
1:50 3ft 7s 5s 11 13 mph 1024.1mb 77f 74f
12:50 2.5ft 8s 5s 9 11 mph 1024.5mb 77f 74f
mié 05/27 11:50 3ft 7s  -  9 11 mph 1024.9mb 77f 74f
10:50 3.5ft 7s 5s 13 16 mph 1025mb 77f 74f
9:50 3ft 7s 5s 16 20 mph 1024.7mb 77f 74f
8:50 3ft 7s 4s 18 20 mph 1024.1mb 77f 74f
7:50 3ft 7s 4s 18 22 mph 1023.7mb 77f 74f
6:50 3ft 7s 4s 18 22 mph 1023.7mb 77f 75f
5:50 3ft 8s 4s 18 20 mph 1024mb 77f 75f
4:50 2.5ft 7s 5s 18 20 mph 1024.6mb 77f 75f
3:50 2.5ft 6s 5s 16 20 mph 1025.2mb 77f 75f
2:50 2.5ft 8s 5s 13 18 mph 1025.9mb 77f 74f
1:50 2.5ft 7s 5s 13 16 mph 1026.2mb 77f 74f
12:50 2.5ft 7s 5s 13
mph
1026.6mb 77f 75f
11:50 2.5ft 6s 5s 11 13 mph 1026.5mb 77f 75f
10:50 2.5ft 7s 5s 11 13 mph 1026.1mb 77f 75f
9:50 2.5ft 5s 5s 11 16 mph 1025.8mb 76f 75f
8:50 2.5ft 5s 4s 11 13 mph 1025.9mb 76f 75f
7:50 3ft 5s 4s 11 16 mph 1025.8mb 76f 75f
6:50 3ft 7s 4s 9 13 mph 1025.6mb 76f 75f
5:50 3ft 4s 4s 11 13 mph 1025.1mb 78f 74f
4:50 2.5ft 5s 4s 13 18 mph 1024.9mb 78f 74f
3:50 3ft 5s 4s 13 18 mph 1024.9mb 78f 74f
2:50 3ft 5s 4s 16 20 mph 1025.2mb 78f 75f
1:50 3ft 6s 4s 18 22 mph 1025.2mb 77f 75f
12:50 3.5ft 5s 4s 18 22 mph 1025.7mb 76f 74f
mar 05/26 11:50 3.5ft 5s 4s 18 22 mph 1026.1mb 76f 74f
10:50 3.5ft 5s 4s 20 25 mph 1025.8mb 76f 74f
9:50 3ft 5s 4s 18 22 mph 1025.9mb 76f 74f
8:50 3ft 6s 4s 20 25 mph 1025mb 77f 74f
7:50 2.5ft 6s 4s 18 22 mph 1025mb 77f 75f
6:50 2.5ft 6s 4s 20 22 mph 1025mb 77f 75f
5:50 3ft 7s 4s 18 20 mph 1025.6mb 77f 75f